createdAt,value
2022-08-23T00:02:26.703Z,7.20
2022-08-23T00:05:08.167Z,7.00
2022-08-23T00:07:39.674Z,6.30
2022-08-23T00:10:11.678Z,5.40
2022-08-23T00:12:40.675Z,5.20
2022-08-23T00:15:10.896Z,7.43
2022-08-23T00:17:42.226Z,6.40
2022-08-23T00:20:14.004Z,6.88
2022-08-23T00:22:42.146Z,7.18
2022-08-23T00:25:13.783Z,6.65
2022-08-23T00:27:42.174Z,6.70
2022-08-23T00:30:12.616Z,6.72
2022-08-23T00:32:41.549Z,6.13
2022-08-23T00:35:11.554Z,4.88
2022-08-23T00:37:40.074Z,4.80
2022-08-23T00:40:12.263Z,4.30
2022-08-23T00:43:02.642Z,4.50
2022-08-23T00:45:52.239Z,4.53
2022-08-23T00:48:20.670Z,4.30
2022-08-23T00:50:52.737Z,4.90
2022-08-23T00:53:24.086Z,4.15
2022-08-23T00:55:57.325Z,4.80
2022-08-23T00:58:26.644Z,4.20
2022-08-23T01:00:56.990Z,4.82
2022-08-23T01:03:27.291Z,5.85
2022-08-23T01:05:59.807Z,5.97
2022-08-23T01:08:28.559Z,4.68
2022-08-23T01:11:01.199Z,4.50
2022-08-23T01:13:36.065Z,3.55
2022-08-23T01:16:08.913Z,3.85
2022-08-23T01:18:38.178Z,4.18
2022-08-23T01:21:13.656Z,4.20
2022-08-23T01:23:45.359Z,3.97
2022-08-23T01:26:14.476Z,5.47
2022-08-23T01:28:50.320Z,5.35
2022-08-23T01:31:19.325Z,5.82
2022-08-23T01:33:50.346Z,5.90
2022-08-23T01:36:18.648Z,5.60
2022-08-23T01:38:48.412Z,5.15
2022-08-23T01:41:16.556Z,4.97
2022-08-23T01:43:45.115Z,4.72
2022-08-23T01:46:18.048Z,4.25
2022-08-23T01:48:47.100Z,4.10
2022-08-23T01:51:16.864Z,3.75
2022-08-23T01:53:46.689Z,3.33
2022-08-23T01:56:27.605Z,3.30
2022-08-23T01:59:08.566Z,3.55
2022-08-23T02:01:37.119Z,4.65
2022-08-23T02:04:05.739Z,4.28
2022-08-23T02:06:34.747Z,3.80
2022-08-23T02:09:03.892Z,5.50
2022-08-23T02:11:35.554Z,4.78
2022-08-23T02:14:06.648Z,5.25
2022-08-23T02:16:37.446Z,4.72
2022-08-23T02:19:08.696Z,5.57
2022-08-23T02:21:38.049Z,5.68
2022-08-23T02:24:08.432Z,5.95
2022-08-23T02:26:38.987Z,9.32
2022-08-23T02:29:07.715Z,6.60
2022-08-23T02:31:36.154Z,5.72
2022-08-23T02:34:06.072Z,6.00
2022-08-23T02:36:34.943Z,6.53
2022-08-23T02:39:03.155Z,7.03
2022-08-23T02:41:31.774Z,5.43
2022-08-23T02:44:01.635Z,5.80
2022-08-23T02:46:29.827Z,5.35
2022-08-23T02:48:58.069Z,5.32
2022-08-23T02:51:26.830Z,4.70
2022-08-23T02:53:54.910Z,4.40
2022-08-23T02:56:23.281Z,5.63
2022-08-23T02:58:54.196Z,6.53
2022-08-23T03:01:28.668Z,5.30
2022-08-23T03:03:58.600Z,5.50
2022-08-23T03:06:27.053Z,5.25
2022-08-23T03:08:55.651Z,5.45
2022-08-23T03:11:25.124Z,6.03
2022-08-23T03:13:54.832Z,6.75
2022-08-23T03:16:24.735Z,6.13
2022-08-23T03:18:53.248Z,5.40
2022-08-23T03:21:22.222Z,8.98
2022-08-23T03:23:50.651Z,6.18
2022-08-23T03:26:18.974Z,6.70
2022-08-23T03:28:47.828Z,7.25
2022-08-23T03:31:17.128Z,7.82
2022-08-23T03:33:47.399Z,8.02
2022-08-23T03:36:16.309Z,9.02
2022-08-23T03:38:45.404Z,8.63
2022-08-23T03:41:14.205Z,8.55
2022-08-23T03:43:42.443Z,9.70
2022-08-23T03:46:10.587Z,8.82
2022-08-23T03:48:40.333Z,10.43
2022-08-23T03:51:09.714Z,11.20
2022-08-23T03:53:37.844Z,10.00
2022-08-23T03:56:06.737Z,9.88
2022-08-23T03:58:35.007Z,11.55
2022-08-23T04:01:03.243Z,10.32
2022-08-23T04:03:32.239Z,13.10
2022-08-23T04:06:00.431Z,15.80
2022-08-23T04:08:33.368Z,13.10
2022-08-23T04:11:02.377Z,13.75
2022-08-23T04:13:30.681Z,17.02
2022-08-23T04:15:59.469Z,14.30
2022-08-23T04:18:30.094Z,15.95
2022-08-23T04:20:59.972Z,16.77
2022-08-23T04:23:29.719Z,17.45
2022-08-23T04:25:58.044Z,15.07
2022-08-23T04:28:27.070Z,15.07
2022-08-23T04:30:55.378Z,14.68
2022-08-23T04:33:24.104Z,17.58
2022-08-23T04:35:52.571Z,16.40
2022-08-23T04:38:25.085Z,14.98
2022-08-23T04:41:12.725Z,14.45
2022-08-23T04:43:41.497Z,13.18
2022-08-23T04:46:10.409Z,14.82
2022-08-23T04:48:39.283Z,15.73
2022-08-23T04:51:07.892Z,15.15
2022-08-23T04:53:36.186Z,15.55
2022-08-23T04:56:07.109Z,15.63
2022-08-23T04:58:36.715Z,15.35
2022-08-23T05:01:08.033Z,15.00
2022-08-23T05:03:36.709Z,15.82
2022-08-23T05:06:05.314Z,16.45
2022-08-23T05:08:33.606Z,18.73
2022-08-23T05:11:02.902Z,18.55
2022-08-23T05:13:34.769Z,17.55
2022-08-23T05:16:03.850Z,19.83
2022-08-23T05:18:32.149Z,18.08
2022-08-23T05:21:00.436Z,17.10
2022-08-23T05:23:32.348Z,18.88
2022-08-23T05:26:02.006Z,22.13
2022-08-23T05:28:34.622Z,18.25
2022-08-23T05:31:06.100Z,17.45
2022-08-23T05:33:40.699Z,20.80
2022-08-23T05:36:10.646Z,20.83
2022-08-23T05:38:39.648Z,19.90
2022-08-23T05:41:08.740Z,22.83
2022-08-23T05:43:38.559Z,17.38
2022-08-23T05:46:12.649Z,21.00
2022-08-23T05:48:43.523Z,21.63
2022-08-23T05:51:13.760Z,22.60
2022-08-23T05:53:43.053Z,27.48
2022-08-23T05:56:13.059Z,19.63
2022-08-23T05:58:43.601Z,17.58
2022-08-23T06:01:12.386Z,20.90
2022-08-23T06:03:41.675Z,24.77
2022-08-23T06:06:10.576Z,19.45
2022-08-23T06:08:40.241Z,20.83
2022-08-23T06:11:11.075Z,21.25
2022-08-23T06:13:43.935Z,21.10
2022-08-23T06:16:13.258Z,20.10
2022-08-23T06:18:44.521Z,21.45
2022-08-23T06:21:14.947Z,20.50
2022-08-23T06:23:44.263Z,21.30
2022-08-23T06:26:14.067Z,17.83
2022-08-23T06:28:50.833Z,19.52
2022-08-23T06:31:42.060Z,18.40
2022-08-23T06:34:12.730Z,17.65
2022-08-23T06:36:42.043Z,18.17
2022-08-23T06:39:12.239Z,17.07
2022-08-23T06:41:40.369Z,15.93
2022-08-23T06:44:10.544Z,19.67
2022-08-23T06:46:39.287Z,19.83
2022-08-23T06:49:08.099Z,18.70
2022-08-23T06:51:38.472Z,17.77
2022-08-23T06:54:10.014Z,15.93
2022-08-23T06:56:42.241Z,13.77
2022-08-23T06:59:12.252Z,16.90
2022-08-23T07:01:46.065Z,15.23
2022-08-23T07:04:21.417Z,18.95
2022-08-23T07:06:49.623Z,18.30
2022-08-23T07:09:18.773Z,21.88
2022-08-23T07:11:47.012Z,17.63
2022-08-23T07:14:19.073Z,20.83
2022-08-23T07:16:50.326Z,18.63
2022-08-23T07:19:19.459Z,16.73
2022-08-23T07:21:48.836Z,17.33
2022-08-23T07:24:17.949Z,24.15
2022-08-23T07:26:48.854Z,30.98
2022-08-23T07:29:18.581Z,24.55
2022-08-23T07:31:49.626Z,24.73
2022-08-23T07:34:18.802Z,34.60
2022-08-23T07:36:48.311Z,24.65
2022-08-23T07:39:17.582Z,26.77
2022-08-23T07:41:46.949Z,27.65
2022-08-23T07:44:19.124Z,28.60
2022-08-23T07:46:51.421Z,29.77
2022-08-23T07:49:20.039Z,31.30
2022-08-23T07:51:50.528Z,30.08
2022-08-23T07:54:20.317Z,26.70
2022-08-23T07:56:48.741Z,31.40
2022-08-23T07:59:16.871Z,38.83
2022-08-23T08:01:46.552Z,34.20
2022-08-23T08:04:15.060Z,39.70
2022-08-23T08:06:46.408Z,42.03
2022-08-23T08:09:15.585Z,35.00
2022-08-23T08:11:47.641Z,39.38
2022-08-23T08:14:17.267Z,36.80
2022-08-23T08:16:49.864Z,41.05
2022-08-23T08:19:19.921Z,42.60
2022-08-23T08:21:48.670Z,32.33
2022-08-23T08:24:17.896Z,43.00
2022-08-23T08:26:46.926Z,35.47
2022-08-23T08:29:15.545Z,33.45
2022-08-23T08:31:50.306Z,25.40
2022-08-23T08:34:21.023Z,28.77
2022-08-23T08:36:52.023Z,26.48
2022-08-23T08:39:23.731Z,31.42
2022-08-23T08:42:08.866Z,32.28
2022-08-23T08:44:40.552Z,28.73
2022-08-23T08:47:15.754Z,30.27
2022-08-23T08:49:52.521Z,23.70
2022-08-23T08:52:24.981Z,28.13
2022-08-23T08:54:58.881Z,30.70
2022-08-23T08:57:27.835Z,28.10
2022-08-23T09:00:00.763Z,28.60
2022-08-23T09:02:34.848Z,21.50
2022-08-23T09:05:05.904Z,28.85
2022-08-23T09:07:43.300Z,22.45
2022-08-23T09:10:26.342Z,25.60
2022-08-23T09:13:03.760Z,24.08
2022-08-23T09:15:42.890Z,23.30
2022-08-23T09:18:15.941Z,22.27
2022-08-23T09:20:45.917Z,18.92
2022-08-23T09:23:18.295Z,24.37
2022-08-23T09:25:53.326Z,21.88
2022-08-23T09:28:21.905Z,24.73
2022-08-23T09:30:53.596Z,19.63
2022-08-23T09:33:26.272Z,20.08
2022-08-23T09:36:15.320Z,20.92
2022-08-23T09:38:53.209Z,23.10
2022-08-23T09:41:27.959Z,17.25
2022-08-23T09:43:59.089Z,21.83
2022-08-23T09:46:30.541Z,23.70
2022-08-23T09:49:01.628Z,21.70
2022-08-23T09:51:34.993Z,19.33
2022-08-23T09:54:07.870Z,19.50
2022-08-23T09:56:39.727Z,21.23
2022-08-23T09:59:26.865Z,21.17
2022-08-23T10:01:57.854Z,23.33
2022-08-23T10:04:41.378Z,22.10
2022-08-23T10:07:28.205Z,20.15
2022-08-23T10:09:56.780Z,17.15
2022-08-23T10:12:25.298Z,18.67
2022-08-23T10:14:53.839Z,20.65
2022-08-23T10:17:28.976Z,21.55
2022-08-23T10:20:06.170Z,21.60
2022-08-23T10:22:42.025Z,20.13
2022-08-23T10:25:14.154Z,22.08
2022-08-23T10:28:06.140Z,24.15
2022-08-23T10:30:50.029Z,23.58
2022-08-23T10:33:22.074Z,21.55
2022-08-23T10:36:01.071Z,25.60
2022-08-23T10:38:36.718Z,23.40
2022-08-23T10:41:19.036Z,26.23
2022-08-23T10:43:53.844Z,26.30
2022-08-23T10:46:23.877Z,31.42
2022-08-23T10:48:54.076Z,26.90
2022-08-23T10:51:31.684Z,22.40
2022-08-23T10:54:04.140Z,25.00
2022-08-23T10:56:32.560Z,26.85
2022-08-23T10:59:03.923Z,23.48
2022-08-23T11:04:03.935Z,26.85
2022-08-23T11:06:47.822Z,27.13
2022-08-23T11:09:50.305Z,19.45
2022-08-23T11:12:24.682Z,21.13
2022-08-23T11:15:11.466Z,18.60
2022-08-23T11:17:45.298Z,17.35
2022-08-23T11:20:15.136Z,19.70
2022-08-23T11:23:13.649Z,18.40
2022-08-23T11:25:43.808Z,21.00
2022-08-23T11:28:37.810Z,19.57
2022-08-23T11:31:21.836Z,21.00
2022-08-23T11:33:53.204Z,19.00
2022-08-23T11:36:24.031Z,19.67
2022-08-23T11:39:06.552Z,21.48
2022-08-23T11:41:38.088Z,19.45
2022-08-23T11:44:24.827Z,18.77
2022-08-23T11:47:04.533Z,21.73
2022-08-23T11:50:08.795Z,20.48
2022-08-23T11:52:54.310Z,19.77
2022-08-23T11:55:30.735Z,18.92
2022-08-23T11:58:14.014Z,22.27
2022-08-23T12:00:55.598Z,19.33
2022-08-23T12:03:27.107Z,18.13
2022-08-23T12:06:16.019Z,20.73
2022-08-23T12:08:52.547Z,21.58
2022-08-23T12:11:24.057Z,18.90
2022-08-23T12:14:01.531Z,21.75
2022-08-23T12:16:49.525Z,26.83
2022-08-23T12:19:26.205Z,21.67
2022-08-23T12:21:56.064Z,19.73
2022-08-23T12:24:27.507Z,21.70
2022-08-23T12:27:02.261Z,23.90
2022-08-23T12:29:41.662Z,21.40
2022-08-23T12:32:15.160Z,21.33
2022-08-23T12:34:53.738Z,23.58
2022-08-23T12:37:32.642Z,18.35
2022-08-23T12:40:03.369Z,22.42
2022-08-23T12:42:35.505Z,22.30
2022-08-23T12:45:08.213Z,19.30
2022-08-23T12:47:40.913Z,19.70
2022-08-23T12:50:21.086Z,20.48
2022-08-23T12:52:59.583Z,18.85
2022-08-23T12:55:32.863Z,20.02
2022-08-23T12:58:02.755Z,21.30
2022-08-23T13:00:34.181Z,23.27
2022-08-23T13:03:05.145Z,21.33
2022-08-23T13:05:39.197Z,23.13
2022-08-23T13:08:09.727Z,21.48
2022-08-23T13:10:41.639Z,19.58
2022-08-23T13:13:13.964Z,21.50
2022-08-23T13:15:46.875Z,19.60
2022-08-23T13:18:29.384Z,23.08
2022-08-23T13:21:20.496Z,24.88
2022-08-23T13:26:28.678Z,20.98
2022-08-23T13:29:11.533Z,25.42
2022-08-23T13:31:53.353Z,25.48
2022-08-23T13:34:39.653Z,21.20
2022-08-23T13:37:21.677Z,23.67
2022-08-23T13:39:54.414Z,21.52
2022-08-23T13:42:31.940Z,19.05
2022-08-23T13:45:08.329Z,22.17
2022-08-23T13:47:37.745Z,21.65
2022-08-23T13:50:11.539Z,21.73
2022-08-23T13:53:03.192Z,20.45
2022-08-23T13:55:29.425Z,22.63
2022-08-23T13:57:59.208Z,20.30
2022-08-23T14:00:28.771Z,21.02
2022-08-23T14:02:56.975Z,19.27
2022-08-23T14:05:25.440Z,20.75
2022-08-23T14:07:53.845Z,20.58
2022-08-23T14:10:23.312Z,21.92
2022-08-23T14:12:54.115Z,20.38
2022-08-23T14:15:54.646Z,23.48
2022-08-23T14:18:12.865Z,22.63
2022-08-23T14:20:46.249Z,22.63
2022-08-23T14:23:14.998Z,22.85
2022-08-23T14:25:43.569Z,21.08
2022-08-23T14:28:11.685Z,22.63
2022-08-23T14:30:40.330Z,25.05
2022-08-23T14:33:08.738Z,22.50
2022-08-23T14:35:38.434Z,23.90
2022-08-23T14:38:07.946Z,22.88
2022-08-23T14:40:36.690Z,23.42
2022-08-23T14:43:06.018Z,18.88
2022-08-23T14:45:34.517Z,23.65
2022-08-23T14:48:04.022Z,21.23
2022-08-23T14:50:32.401Z,20.13
2022-08-23T14:53:04.931Z,20.90
2022-08-23T14:55:33.294Z,21.88
2022-08-23T14:58:01.776Z,23.02
2022-08-23T15:00:31.261Z,22.85
2022-08-23T15:02:59.763Z,23.45
2022-08-23T15:05:28.088Z,23.05
2022-08-23T15:07:56.255Z,28.27
2022-08-23T15:13:22.123Z,24.92
2022-08-23T15:15:55.519Z,21.33
2022-08-23T15:18:24.250Z,20.40
2022-08-23T15:20:52.666Z,18.77
2022-08-23T15:23:21.133Z,20.25
2022-08-23T15:25:51.472Z,20.10
2022-08-23T15:28:22.473Z,19.40
2022-08-23T15:30:51.677Z,16.77
2022-08-23T15:33:24.683Z,18.25
2022-08-23T15:35:55.995Z,19.10
2022-08-23T15:38:25.878Z,18.02
2022-08-23T15:40:55.898Z,18.70
2022-08-23T15:43:25.875Z,20.77
2022-08-23T15:46:07.283Z,19.27
2022-08-23T15:48:38.022Z,19.40
2022-08-23T15:51:07.028Z,20.05
2022-08-23T15:53:35.400Z,18.85
2022-08-23T15:58:38.497Z,17.38
2022-08-23T16:01:08.093Z,18.45
2022-08-23T16:03:36.995Z,19.08
2022-08-23T16:06:05.630Z,22.10
2022-08-23T16:08:38.439Z,17.65
2022-08-23T16:11:12.376Z,21.27
2022-08-23T16:13:42.748Z,20.77
2022-08-23T16:16:17.855Z,21.20
2022-08-23T16:18:46.442Z,19.45
2022-08-23T16:21:15.600Z,18.75
2022-08-23T16:23:44.562Z,19.33
2022-08-23T16:26:16.666Z,20.48
2022-08-23T16:28:51.622Z,20.42
2022-08-23T16:31:20.401Z,23.02
2022-08-23T16:33:48.919Z,21.15
2022-08-23T16:36:19.519Z,20.75
2022-08-23T16:38:49.508Z,20.83
2022-08-23T16:41:19.241Z,20.92
2022-08-23T16:43:47.374Z,21.05
2022-08-23T16:46:17.010Z,20.38
2022-08-23T16:48:45.924Z,21.13
2022-08-23T16:51:14.442Z,26.15
2022-08-23T16:53:43.486Z,21.58
2022-08-23T16:58:45.766Z,22.08
2022-08-23T17:01:14.926Z,18.45
2022-08-23T17:03:44.105Z,20.50
2022-08-23T17:06:13.096Z,20.63
2022-08-23T17:08:41.353Z,20.73
2022-08-23T17:11:12.243Z,20.60
2022-08-23T17:13:42.544Z,25.00
2022-08-23T17:16:12.956Z,23.50
2022-08-23T17:18:41.606Z,20.13
2022-08-23T17:21:10.242Z,20.70
2022-08-23T17:23:40.611Z,18.27
2022-08-23T17:26:09.593Z,20.35
2022-08-23T17:28:38.008Z,20.20
2022-08-23T17:31:06.715Z,17.48
2022-08-23T17:33:36.737Z,20.15
2022-08-23T17:36:07.151Z,16.98
2022-08-23T17:38:36.469Z,16.45
2022-08-23T17:41:04.650Z,17.42
2022-08-23T17:43:33.013Z,20.35
2022-08-23T17:46:01.714Z,18.25
2022-08-23T17:48:30.106Z,21.23
2022-08-23T17:51:00.099Z,16.75
2022-08-23T17:53:28.888Z,18.53
2022-08-23T17:55:57.479Z,18.65
2022-08-23T17:58:26.055Z,17.17
2022-08-23T18:00:56.094Z,20.30
2022-08-23T18:03:24.592Z,17.17
2022-08-23T18:05:53.263Z,22.92
2022-08-23T18:08:23.274Z,21.65
2022-08-23T18:10:51.849Z,20.55
2022-08-23T18:13:20.786Z,17.48
2022-08-23T18:15:49.186Z,19.45
2022-08-23T18:18:17.726Z,18.67
2022-08-23T18:20:45.938Z,17.23
2022-08-23T18:23:15.716Z,16.98
2022-08-23T18:25:45.940Z,17.88
2022-08-23T18:28:14.326Z,18.07
2022-08-23T18:30:48.291Z,18.23
2022-08-23T18:33:17.790Z,17.98
2022-08-23T18:35:47.730Z,19.33
2022-08-23T18:38:16.394Z,15.88
2022-08-23T18:40:47.982Z,22.23
2022-08-23T18:43:19.391Z,18.73
2022-08-23T18:45:49.410Z,18.08
2022-08-23T18:48:18.220Z,17.42
2022-08-23T18:50:46.569Z,17.65
2022-08-23T18:53:14.818Z,16.02
2022-08-23T18:55:43.470Z,16.88
2022-08-23T18:58:13.606Z,18.80
2022-08-23T19:00:45.072Z,21.33
2022-08-23T19:03:16.632Z,17.65
2022-08-23T19:05:44.779Z,18.02
2022-08-23T19:08:14.047Z,22.77
2022-08-23T19:10:43.151Z,18.48
2022-08-23T19:13:13.331Z,21.42
2022-08-23T19:15:42.151Z,21.27
2022-08-23T19:18:11.211Z,20.58
2022-08-23T19:20:39.837Z,21.05
2022-08-23T19:23:08.493Z,20.73
2022-08-23T19:25:38.679Z,20.80
2022-08-23T19:28:07.159Z,20.65
2022-08-23T19:30:37.051Z,18.42
2022-08-23T19:33:08.709Z,21.42
2022-08-23T19:35:37.321Z,16.38
2022-08-23T19:38:05.695Z,17.38
2022-08-23T19:40:34.377Z,18.52
2022-08-23T19:43:02.971Z,20.95
2022-08-23T19:45:32.404Z,19.63
2022-08-23T19:48:02.932Z,21.73
2022-08-23T19:50:31.381Z,21.48
2022-08-23T19:53:00.133Z,21.67
2022-08-23T19:55:29.330Z,21.75
2022-08-23T19:57:58.115Z,19.23
2022-08-23T20:00:27.653Z,19.30
2022-08-23T20:02:55.734Z,21.13
2022-08-23T20:05:25.619Z,21.60
2022-08-23T20:07:53.831Z,22.98
2022-08-23T20:10:22.412Z,28.05
2022-08-23T20:12:50.874Z,23.25
2022-08-23T20:15:19.130Z,23.80
2022-08-23T20:17:47.302Z,23.05
2022-08-23T20:20:15.693Z,23.08
2022-08-23T20:23:03.034Z,23.38
2022-08-23T20:25:31.629Z,30.30
2022-08-23T20:27:59.882Z,21.33
2022-08-23T20:30:28.198Z,20.40
2022-08-23T20:32:56.639Z,21.90
2022-08-23T20:35:25.032Z,23.17
2022-08-23T20:37:54.664Z,25.67
2022-08-23T20:40:26.115Z,21.63
2022-08-23T20:42:54.299Z,20.35
2022-08-23T20:45:22.416Z,25.88
2022-08-23T20:47:50.923Z,27.70
2022-08-23T20:50:19.013Z,27.95
2022-08-23T20:52:47.098Z,28.55
2022-08-23T20:55:16.993Z,28.40
2022-08-23T20:57:45.161Z,23.40
2022-08-23T21:00:14.366Z,28.25
2022-08-23T21:02:42.812Z,32.50
2022-08-23T21:05:11.111Z,27.48
2022-08-23T21:07:40.235Z,25.52
2022-08-23T21:10:10.639Z,26.73
2022-08-23T21:12:40.308Z,29.83
2022-08-23T21:15:11.089Z,27.10
2022-08-23T21:17:39.662Z,31.52
2022-08-23T21:20:08.880Z,33.55
2022-08-23T21:22:37.227Z,31.98
2022-08-23T21:25:06.360Z,58.38
2022-08-23T21:27:35.143Z,40.13
2022-08-23T21:30:06.130Z,38.50
2022-08-23T21:32:34.383Z,31.92
2022-08-23T21:35:03.307Z,33.75
2022-08-23T21:37:31.419Z,31.77
2022-08-23T21:39:59.836Z,35.92
2022-08-23T21:42:28.217Z,28.75
2022-08-23T21:44:56.858Z,32.08
2022-08-23T21:47:26.704Z,31.02
2022-08-23T21:49:54.841Z,27.55
2022-08-23T21:52:23.011Z,27.92
2022-08-23T21:54:51.627Z,26.58
2022-08-23T21:57:19.845Z,26.98
2022-08-23T21:59:51.729Z,28.02
2022-08-23T22:02:20.640Z,21.80
2022-08-23T22:04:50.449Z,25.42
2022-08-23T22:07:18.758Z,27.10
2022-08-23T22:09:47.304Z,25.90
2022-08-23T22:12:15.816Z,31.15
2022-08-23T22:14:47.348Z,25.73
2022-08-23T22:17:17.959Z,25.75
2022-08-23T22:19:46.220Z,24.35
2022-08-23T22:22:15.792Z,22.10
2022-08-23T22:24:44.302Z,27.52
2022-08-23T22:27:13.468Z,25.52
2022-08-23T22:29:41.771Z,26.42
2022-08-23T22:32:13.664Z,27.52
2022-08-23T22:34:41.905Z,22.52
2022-08-23T22:37:09.974Z,24.20
2022-08-23T22:39:39.735Z,26.83
2022-08-23T22:42:09.887Z,28.83
2022-08-23T22:44:38.325Z,23.80
2022-08-23T22:47:07.068Z,25.85
2022-08-23T22:49:35.162Z,26.38
2022-08-23T22:52:03.228Z,29.55
2022-08-23T22:54:31.576Z,21.85
2022-08-23T22:57:00.975Z,25.92
2022-08-23T22:59:32.134Z,26.30
2022-08-23T23:02:02.563Z,26.58
2022-08-23T23:04:32.676Z,22.67
2022-08-23T23:07:00.976Z,25.08
2022-08-23T23:09:29.498Z,24.45
2022-08-23T23:11:57.574Z,23.52
2022-08-23T23:14:26.976Z,22.73
2022-08-23T23:16:55.483Z,24.35
2022-08-23T23:19:41.087Z,29.50
2022-08-23T23:22:11.106Z,27.05
2022-08-23T23:24:40.568Z,24.38
2022-08-23T23:27:09.256Z,28.70
2022-08-23T23:29:38.905Z,28.85
2022-08-23T23:32:07.500Z,25.23
2022-08-23T23:34:38.058Z,30.13
2022-08-23T23:37:06.460Z,31.45
2022-08-23T23:39:34.727Z,39.80
2022-08-23T23:42:02.878Z,33.10
2022-08-23T23:44:32.032Z,35.22
2022-08-23T23:47:02.425Z,36.10
2022-08-23T23:49:32.345Z,35.65
2022-08-23T23:52:03.630Z,37.17
2022-08-23T23:54:32.521Z,38.08
2022-08-23T23:57:00.647Z,41.72
2022-08-23T23:59:29.188Z,39.17
